Time;durP1;ratioP1;P1;durP2;ratioP2;P2;SDS_P1;SDS_P2;PMS_P1;PMS_P2;Temp;Humidity;BMP_temperature;BMP_pressure;BME280_temperature;BME280_humidity;BME280_pressure;Samples;Min_cycle;Max_cycle;Signal;HPM_P1;HPM_P2
2022/03/22 00:01:32;;;;;;;104.15;48.88;;;;;;;;;;5076342;28;20103;-66
2022/03/22 00:04:02;;;;;;;111.70;51.77;;;;;;;;;;5076219;28;20029;-65
2022/03/22 00:06:33;;;;;;;114.90;51.57;;;;;;;;;;5076201;28;20086;-65
2022/03/22 00:08:59;;;;;;;105.97;49.60;;;;;;;;;;5076182;28;20031;-65
2022/03/22 00:11:26;;;;;;;106.05;50.92;;;;;;;;;;5076136;28;20028;-65
2022/03/22 00:13:53;;;;;;;104.63;48.10;;;;;;;;;;5058070;28;20044;-64
2022/03/22 00:16:20;;;;;;;118.40;53.03;;;;;;;;;;5076031;28;20025;-65
2022/03/22 00:18:47;;;;;;;121.83;56.10;;;;;;;;;;5075955;28;20051;-64
2022/03/22 00:21:13;;;;;;;144.15;64.78;;;;;;;;;;5075901;28;20028;-65
2022/03/22 00:23:39;;;;;;;120.40;55.50;;;;;;;;;;5075910;28;20057;-65
2022/03/22 00:26:05;;;;;;;104.65;51.70;;;;;;;;;;5057802;28;20028;-65
2022/03/22 00:28:33;;;;;;;97.45;50.08;;;;;;;;;;5076085;28;20024;-65
2022/03/22 00:31:00;;;;;;;98.13;48.20;;;;;;;;;;5075749;28;20476;-65
2022/03/22 00:33:36;;;;;;;108.93;53.17;;;;;;;;;;5057770;28;20028;-64
2022/03/22 00:36:02;;;;;;;110.00;50.13;;;;;;;;;;5057759;28;20021;-65
2022/03/22 00:38:29;;;;;;;110.63;51.90;;;;;;;;;;5075576;28;20067;-64
2022/03/22 00:40:55;;;;;;;95.67;47.57;;;;;;;;;;5057643;28;20508;-65
2022/03/22 00:43:22;;;;;;;94.90;46.90;;;;;;;;;;5075084;28;20111;-65
2022/03/22 00:45:49;;;;;;;87.50;43.87;;;;;;;;;;5075562;28;20043;-65
2022/03/22 00:48:16;;;;;;;86.97;42.53;;;;;;;;;;5075453;28;20107;-67
2022/03/22 00:50:43;;;;;;;86.17;43.50;;;;;;;;;;5075402;28;20052;-65
2022/03/22 00:53:12;;;;;;;90.43;41.93;;;;;;;;;;5075426;28;20117;-65
2022/03/22 00:55:40;;;;;;;83.60;39.27;;;;;;;;;;5075307;28;20025;-65
2022/03/22 00:58:07;;;;;;;80.63;39.70;;;;;;;;;;5075285;28;20016;-65
2022/03/22 01:00:34;;;;;;;85.60;39.63;;;;;;;;;;5057239;28;20115;-65
2022/03/22 01:03:02;;;;;;;79.50;39.07;;;;;;;;;;5075174;28;20032;-65
2022/03/22 01:05:29;;;;;;;83.80;39.27;;;;;;;;;;5075131;28;20052;-65
2022/03/22 01:08:16;;;;;;;84.23;40.77;;;;;;;;;;5075370;28;20032;-65
2022/03/22 01:10:43;;;;;;;87.97;41.33;;;;;;;;;;5090600;28;20025;-65
2022/03/22 01:13:11;;;;;;;87.10;40.10;;;;;;;;;;5075027;28;20039;-66
2022/03/22 01:15:42;;;;;;;91.37;40.07;;;;;;;;;;5074971;28;20025;-65
2022/03/22 01:18:08;;;;;;;;;;;;;;;;;;5075404;28;20032;-65
2022/03/22 01:20:35;;;;;;;87.13;39.73;;;;;;;;;;5074860;28;19999;-65
2022/03/22 01:23:02;;;;;;;86.07;39.07;;;;;;;;;;5056882;28;20035;-65
2022/03/22 01:25:30;;;;;;;81.93;38.77;;;;;;;;;;5056751;28;20032;-65
2022/03/22 01:27:56;;;;;;;88.47;42.23;;;;;;;;;;5074696;28;20055;-66
2022/03/22 01:30:23;;;;;;;82.83;39.93;;;;;;;;;;5074332;28;20033;-65
2022/03/22 01:32:50;;;;;;;85.57;41.07;;;;;;;;;;5056653;28;20119;-66
2022/03/22 01:35:17;;;;;;;100.63;45.70;;;;;;;;;;5074538;28;20472;-65
2022/03/22 01:37:44;;;;;;;90.13;41.10;;;;;;;;;;5056509;28;20017;-65
2022/03/22 01:40:11;;;;;;;77.97;37.70;;;;;;;;;;5056349;28;20021;-66
2022/03/22 01:42:38;;;;;;;78.33;37.67;;;;;;;;;;5054841;28;20503;-67
2022/03/22 01:45:04;;;;;;;81.23;38.27;;;;;;;;;;5074399;28;20029;-67
2022/03/22 01:47:30;;;;;;;84.37;39.67;;;;;;;;;;5056374;28;20345;-65
2022/03/22 01:49:57;;;;;;;82.10;37.17;;;;;;;;;;5056099;28;20448;-65
2022/03/22 01:52:24;;;;;;;82.00;40.17;;;;;;;;;;5073906;28;20099;-65
2022/03/22 01:54:51;;;;;;;80.70;38.47;;;;;;;;;;5074141;28;20028;-65
2022/03/22 01:57:21;;;;;;;70.83;35.33;;;;;;;;;;5074053;28;20095;-65
2022/03/22 01:59:48;;;;;;;74.87;36.63;;;;;;;;;;5056080;28;20024;-67
2022/03/22 02:07:45;;;;;;;65.77;34.40;;;;;;;;;;5073894;28;20039;-65
2022/03/22 02:10:12;;;;;;;65.13;33.17;;;;;;;;;;5055901;28;20384;-65
2022/03/22 02:12:39;;;;;;;66.70;32.30;;;;;;;;;;5055924;28;20021;-65
2022/03/22 02:15:05;;;;;;;69.27;33.33;;;;;;;;;;5073735;28;20027;-65
2022/03/22 02:17:32;;;;;;;71.40;31.83;;;;;;;;;;5055742;28;20028;-66
2022/03/22 02:19:59;;;;;;;74.13;34.60;;;;;;;;;;5055676;28;20119;-65
2022/03/22 02:22:35;;;;;;;66.60;34.03;;;;;;;;;;5073474;28;20037;-65
2022/03/22 02:25:01;;;;;;;76.20;34.17;;;;;;;;;;5055722;28;20158;-65
2022/03/22 02:27:29;;;;;;;73.07;36.13;;;;;;;;;;5055551;28;20074;-65
2022/03/22 02:29:56;;;;;;;72.00;34.73;;;;;;;;;;5055520;28;20059;-65
2022/03/22 02:32:25;;;;;;;68.87;36.03;;;;;;;;;;5073519;28;20032;-66
2022/03/22 02:34:51;;;;;;;74.60;34.77;;;;;;;;;;5073686;28;20033;-64
2022/03/22 02:37:18;;;;;;;73.47;34.83;;;;;;;;;;5073397;28;20025;-65
2022/03/22 02:39:44;;;;;;;64.80;34.80;;;;;;;;;;5055365;28;20028;-64
2022/03/22 02:42:11;;;;;;;71.50;35.13;;;;;;;;;;5073269;28;20496;-66
2022/03/22 02:44:38;;;;;;;74.13;34.10;;;;;;;;;;5072801;28;20049;-65
2022/03/22 02:47:04;;;;;;;65.30;34.23;;;;;;;;;;5055256;28;20046;-66
2022/03/22 02:49:30;;;;;;;71.13;34.30;;;;;;;;;;5073228;28;20055;-65
2022/03/22 02:51:57;;;;;;;66.23;32.43;;;;;;;;;;5073461;28;20077;-64
2022/03/22 02:54:23;;;;;;;79.67;34.27;;;;;;;;;;5055330;28;20052;-66
2022/03/22 02:56:49;;;;;;;78.23;33.97;;;;;;;;;;5055152;28;20028;-66
2022/03/22 02:59:15;;;;;;;66.97;33.23;;;;;;;;;;5073117;28;20028;-64
2022/03/22 03:01:41;;;;;;;79.30;35.57;;;;;;;;;;5073099;28;20028;-63
2022/03/22 03:04:07;;;;;;;74.87;36.17;;;;;;;;;;5072522;28;20028;-66
2022/03/22 03:06:35;;;;;;;86.93;40.83;;;;;;;;;;5055041;28;20020;-65
2022/03/22 03:09:02;;;;;;;85.27;40.33;;;;;;;;;;5073045;28;20419;-65
2022/03/22 03:11:28;;;;;;;84.93;38.50;;;;;;;;;;5073023;28;20028;-65
2022/03/22 03:16:39;;;;;;;80.83;38.53;;;;;;;;;;5072807;28;20055;-66
2022/03/22 03:19:06;;;;;;;79.27;38.03;;;;;;;;;;5073243;28;20036;-66
2022/03/22 03:21:32;;;;;;;84.60;40.33;;;;;;;;;;5072920;28;20082;-65
2022/03/22 03:23:58;;;;;;;80.27;36.53;;;;;;;;;;5054878;28;20089;-65
2022/03/22 03:26:24;;;;;;;73.83;35.50;;;;;;;;;;5072586;28;20395;-65
2022/03/22 03:28:51;;;;;;;74.27;35.47;;;;;;;;;;5072857;28;20036;-66
2022/03/22 03:31:17;;;;;;;72.93;34.23;;;;;;;;;;5073015;28;20039;-65
2022/03/22 03:33:43;;;;;;;72.87;33.83;;;;;;;;;;5072879;28;20038;-64
2022/03/22 03:36:09;;;;;;;63.77;32.70;;;;;;;;;;5054457;28;20102;-66
2022/03/22 03:38:41;;;;;;;69.70;29.73;;;;;;;;;;5072661;28;20086;-66
2022/03/22 03:43:53;;;;;;;65.10;30.93;;;;;;;;;;5072676;28;20538;-66
2022/03/22 03:49:06;;;;;;;62.43;28.83;;;;;;;;;;5072698;28;20035;-67
2022/03/22 03:51:33;;;;;;;62.03;28.30;;;;;;;;;;5054620;28;20028;-68
2022/03/22 03:54:00;;;;;;;58.27;28.37;;;;;;;;;;5071345;28;20094;-68
2022/03/22 03:56:26;;;;;;;60.40;28.97;;;;;;;;;;5053196;28;20020;-68
2022/03/22 03:58:52;;;;;;;53.77;26.90;;;;;;;;;;5053210;28;20020;-67
2022/03/22 04:01:18;;;;;;;59.57;28.10;;;;;;;;;;5053070;28;20060;-67
2022/03/22 04:03:46;;;;;;;67.87;29.07;;;;;;;;;;5050378;28;20366;-67
2022/03/22 04:06:12;;;;;;;60.80;28.93;;;;;;;;;;5052497;28;20035;-66
2022/03/22 04:08:38;;;;;;;63.97;29.90;;;;;;;;;;5068384;28;20021;-67
2022/03/22 04:11:04;;;;;;;70.73;29.63;;;;;;;;;;5052905;28;20051;-66
2022/03/22 04:13:30;;;;;;;70.47;31.33;;;;;;;;;;5072619;28;20077;-65
2022/03/22 04:15:56;;;;;;;84.23;37.87;;;;;;;;;;5074960;28;20017;-66
2022/03/22 04:18:23;;;;;;;100.97;41.30;;;;;;;;;;5056086;28;20029;-65
2022/03/22 04:20:49;;;;;;;116.73;41.43;;;;;;;;;;5074059;28;20525;-66
2022/03/22 04:23:16;;;;;;;97.77;39.50;;;;;;;;;;5056507;28;20036;-67
2022/03/22 04:25:42;;;;;;;144.57;50.67;;;;;;;;;;5075511;28;20032;-65
2022/03/22 04:33:37;;;;;;;69.90;28.57;;;;;;;;;;5075560;28;20063;-67
2022/03/22 04:36:04;;;;;;;80.20;31.07;;;;;;;;;;5057637;28;20012;-67
2022/03/22 04:38:34;;;;;;;127.63;46.03;;;;;;;;;;5075703;28;20107;-66
2022/03/22 04:41:00;;;;;;;126.13;47.93;;;;;;;;;;5076009;28;20475;-66
2022/03/22 04:43:27;;;;;;;93.40;36.37;;;;;;;;;;5075395;28;20092;-68
2022/03/22 04:45:53;;;;;;;79.27;30.90;;;;;;;;;;5057517;28;20029;-67
2022/03/22 04:48:19;;;;;;;73.10;31.83;;;;;;;;;;5057535;28;20028;-64
2022/03/22 04:50:45;;;;;;;60.63;27.70;;;;;;;;;;5057437;28;20086;-65
2022/03/22 04:58:41;;;;;;;58.10;26.50;;;;;;;;;;5075368;28;20052;-65
2022/03/22 05:01:07;;;;;;;68.00;27.40;;;;;;;;;;5075274;28;20021;-65
2022/03/22 05:03:33;;;;;;;63.87;27.27;;;;;;;;;;5056553;28;20037;-64
2022/03/22 05:08:44;;;;;;;55.53;26.87;;;;;;;;;;5074903;28;20078;-67
2022/03/22 05:11:10;;;;;;;54.60;26.17;;;;;;;;;;5073683;28;20113;-69
2022/03/22 05:13:37;;;;;;;59.30;26.80;;;;;;;;;;5057046;28;20038;-67
2022/03/22 05:16:05;;;;;;;50.90;25.37;;;;;;;;;;5057023;28;20464;-66
2022/03/22 05:18:31;;;;;;;47.00;23.03;;;;;;;;;;5074920;28;20031;-66
2022/03/22 05:20:57;;;;;;;55.97;25.00;;;;;;;;;;5074882;28;20020;-66
2022/03/22 05:23:23;;;;;;;56.83;25.73;;;;;;;;;;5056778;28;20051;-67
2022/03/22 05:25:50;;;;;;;64.20;26.47;;;;;;;;;;5073966;28;20075;-68
2022/03/22 05:28:16;;;;;;;70.20;25.97;;;;;;;;;;5056479;28;20548;-70
2022/03/22 05:30:42;;;;;;;50.30;25.33;;;;;;;;;;5074699;28;20024;-69
2022/03/22 05:33:17;;;;;;;52.93;25.30;;;;;;;;;;5074428;28;20060;-69
2022/03/22 05:35:43;;;;;;;47.73;24.30;;;;;;;;;;5074642;28;20051;-68
2022/03/22 05:38:09;;;;;;;54.30;24.67;;;;;;;;;;5074731;28;20028;-68
2022/03/22 05:40:36;;;;;;;62.33;25.77;;;;;;;;;;5056504;28;20123;-68
2022/03/22 05:43:02;;;;;;;51.43;25.60;;;;;;;;;;5055947;28;20127;-68
2022/03/22 05:45:28;;;;;;;48.00;26.33;;;;;;;;;;5074346;28;20103;-68
2022/03/22 05:47:54;;;;;;;53.70;25.00;;;;;;;;;;5074271;28;20514;-66
2022/03/22 05:50:20;;;;;;;53.57;23.83;;;;;;;;;;5056203;28;20021;-68
2022/03/22 05:52:49;;;;;;;49.70;23.83;;;;;;;;;;5073110;28;20506;-69
2022/03/22 05:55:15;;;;;;;48.83;23.67;;;;;;;;;;5073600;28;20039;-68
2022/03/22 05:57:41;;;;;;;51.70;24.03;;;;;;;;;;5074022;28;20050;-68
2022/03/22 06:00:09;;;;;;;55.83;26.30;;;;;;;;;;5072610;28;20051;-69
2022/03/22 06:02:39;;;;;;;64.57;26.20;;;;;;;;;;5055659;28;20119;-68
2022/03/22 06:05:08;;;;;;;46.90;24.23;;;;;;;;;;5073906;28;20025;-66
2022/03/22 06:07:34;;;;;;;50.07;24.90;;;;;;;;;;5073657;28;20501;-67
2022/03/22 06:10:00;;;;;;;58.20;26.20;;;;;;;;;;5073856;28;20108;-68
2022/03/22 06:12:26;;;;;;;50.30;25.60;;;;;;;;;;5073813;28;20029;-67
2022/03/22 06:15:14;;;;;;;53.03;25.27;;;;;;;;;;5073820;28;20035;-69
2022/03/22 06:17:39;;;;;;;40.13;23.10;;;;;;;;;;5073291;28;20388;-68
2022/03/22 06:20:06;;;;;;;44.30;23.63;;;;;;;;;;5073675;28;20025;-68
2022/03/22 06:22:32;;;;;;;47.53;22.53;;;;;;;;;;5055543;28;20024;-68
2022/03/22 06:24:58;;;;;;;45.40;24.73;;;;;;;;;;5055550;28;20115;-68
2022/03/22 06:27:24;;;;;;;47.80;23.58;;;;;;;;;;5073546;28;20028;-66
2022/03/22 06:29:50;;;;;;;47.80;22.95;;;;;;;;;;5055377;28;20024;-68
2022/03/22 06:32:17;;;;;;;47.30;23.93;;;;;;;;;;5073322;28;20373;-66
2022/03/22 06:34:43;;;;;;;42.50;23.13;;;;;;;;;;5073479;28;20400;-67
2022/03/22 06:37:09;;;;;;;45.87;24.07;;;;;;;;;;5060437;28;20418;-67
2022/03/22 06:39:35;;;;;;;53.85;24.73;;;;;;;;;;5073432;28;20119;-65
2022/03/22 06:42:01;;;;;;;47.20;24.25;;;;;;;;;;5054943;28;20031;-66
2022/03/22 06:44:28;;;;;;;55.03;24.60;;;;;;;;;;5073117;28;20118;-66
2022/03/22 06:46:54;;;;;;;53.97;26.17;;;;;;;;;;5072903;28;20063;-65
2022/03/22 06:49:20;;;;;;;48.83;26.27;;;;;;;;;;5072677;28;20464;-65
2022/03/22 06:51:46;;;;;;;51.08;26.00;;;;;;;;;;5054975;28;20376;-65
2022/03/22 06:54:12;;;;;;;53.85;25.83;;;;;;;;;;5072586;28;20433;-65
2022/03/22 06:56:39;;;;;;;58.05;26.70;;;;;;;;;;5073186;28;20029;-65
2022/03/22 06:59:05;;;;;;;49.17;25.67;;;;;;;;;;5072667;28;20024;-65
2022/03/22 07:01:32;;;;;;;62.58;25.92;;;;;;;;;;5072339;28;20489;-64
2022/03/22 07:04:02;;;;;;;50.80;24.35;;;;;;;;;;5072747;28;20032;-65
2022/03/22 07:06:32;;;;;;;56.25;25.95;;;;;;;;;;5052964;28;20083;-64
2022/03/22 07:08:58;;;;;;;47.28;25.67;;;;;;;;;;5071842;28;20043;-64
2022/03/22 07:14:09;;;;;;;51.47;25.63;;;;;;;;;;5072375;28;20089;-65
2022/03/22 07:16:36;;;;;;;60.20;25.00;;;;;;;;;;5072769;28;20036;-65
2022/03/22 07:19:02;;;;;;;52.50;24.08;;;;;;;;;;5072431;28;20020;-65
2022/03/22 07:21:29;;;;;;;53.53;24.02;;;;;;;;;;5054625;28;20112;-65
2022/03/22 07:23:56;;;;;;;42.67;23.73;;;;;;;;;;5072334;28;20526;-67
2022/03/22 07:26:22;;;;;;;47.90;24.35;;;;;;;;;;5054689;28;20032;-68
2022/03/22 07:28:48;;;;;;;54.05;25.15;;;;;;;;;;5072689;28;20035;-67
2022/03/22 07:31:15;;;;;;;48.92;24.80;;;;;;;;;;5072757;28;20033;-66
2022/03/22 07:33:41;;;;;;;51.42;23.45;;;;;;;;;;5072661;28;20024;-66
2022/03/22 07:36:07;;;;;;;57.70;24.20;;;;;;;;;;5054683;28;20025;-67
2022/03/22 07:38:33;;;;;;;49.38;23.65;;;;;;;;;;5069196;28;20024;-67
2022/03/22 07:40:59;;;;;;;60.67;25.27;;;;;;;;;;5054334;28;20035;-66
2022/03/22 07:43:28;;;;;;;51.20;24.25;;;;;;;;;;5071933;28;20040;-66
2022/03/22 07:45:55;;;;;;;47.92;23.75;;;;;;;;;;5072486;28;20063;-66
2022/03/22 07:48:21;;;;;;;50.30;24.85;;;;;;;;;;5072622;28;20024;-66
2022/03/22 07:53:32;;;;;;;42.05;24.38;;;;;;;;;;5075682;28;20095;-72
2022/03/22 07:55:58;;;;;;;49.97;26.42;;;;;;;;;;5057559;28;20451;-68
2022/03/22 07:58:24;;;;;;;51.55;25.35;;;;;;;;;;5075986;28;20028;-67
2022/03/22 08:00:50;;;;;;;50.47;27.20;;;;;;;;;;5058361;28;20494;-69
2022/03/22 08:03:18;;;;;;;96.85;26.52;;;;;;;;;;5057814;28;20072;-69
2022/03/22 08:05:47;;;;;;;44.70;26.90;;;;;;;;;;5075925;28;20027;-69
2022/03/22 08:08:14;;;;;;;50.67;26.90;;;;;;;;;;5075745;28;20032;-67
2022/03/22 08:10:40;;;;;;;51.67;28.65;;;;;;;;;;5057899;28;20021;-68
2022/03/22 08:13:07;;;;;;;55.03;28.17;;;;;;;;;;5057909;28;20055;-67
2022/03/22 08:15:33;;;;;;;53.70;28.98;;;;;;;;;;5075664;28;20025;-67
2022/03/22 08:17:59;;;;;;;49.67;29.15;;;;;;;;;;5057638;28;20029;-66
2022/03/22 08:20:27;;;;;;;56.03;29.33;;;;;;;;;;5075944;28;20040;-68
2022/03/22 08:23:04;;;;;;;62.88;30.38;;;;;;;;;;5075553;28;20047;-68
2022/03/22 08:25:30;;;;;;;51.85;30.33;;;;;;;;;;5075467;28;20033;-68
2022/03/22 08:27:57;;;;;;;60.22;30.90;;;;;;;;;;5057448;28;20029;-68
2022/03/22 08:30:24;;;;;;;58.60;29.63;;;;;;;;;;5075533;28;20024;-68
2022/03/22 08:32:54;;;;;;;55.65;30.17;;;;;;;;;;5057429;28;20020;-68
2022/03/22 08:35:21;;;;;;;55.20;29.98;;;;;;;;;;5075113;28;20503;-69
2022/03/22 08:37:48;;;;;;;60.53;29.85;;;;;;;;;;5074883;28;20021;-69
2022/03/22 08:40:15;;;;;;;56.55;29.70;;;;;;;;;;5075209;28;20554;-68
2022/03/22 08:42:45;;;;;;;54.05;29.48;;;;;;;;;;5056611;28;20048;-68
2022/03/22 08:45:12;;;;;;;56.90;28.92;;;;;;;;;;5075058;28;20025;-68
2022/03/22 08:47:40;;;;;;;46.30;27.15;;;;;;;;;;5057163;28;20033;-67
2022/03/22 08:50:07;;;;;;;50.28;26.30;;;;;;;;;;5075146;28;20025;-67
2022/03/22 08:52:35;;;;;;;48.92;26.70;;;;;;;;;;5075069;28;20471;-68
2022/03/22 08:55:01;;;;;;;42.80;24.20;;;;;;;;;;5075014;28;20031;-68
2022/03/22 08:57:27;;;;;;;44.70;22.70;;;;;;;;;;5056797;28;20025;-68
2022/03/22 08:59:54;;;;;;;42.90;24.90;;;;;;;;;;5074155;28;20032;-67
2022/03/22 09:02:20;;;;;;;40.20;24.17;;;;;;;;;;5074554;28;20529;-68
2022/03/22 09:07:30;;;;;;;46.10;25.08;;;;;;;;;;5074745;28;20127;-68
2022/03/22 09:09:57;;;;;;;40.55;25.52;;;;;;;;;;5074889;28;20108;-67
2022/03/22 09:12:23;;;;;;;46.88;25.55;;;;;;;;;;5056862;28;20036;-65
2022/03/22 09:14:51;;;;;;;42.28;24.70;;;;;;;;;;5074610;28;20111;-68
2022/03/22 09:17:17;;;;;;;45.92;26.05;;;;;;;;;;5072773;28;20031;-68
2022/03/22 09:19:44;;;;;;;46.35;25.45;;;;;;;;;;5074431;28;20161;-69
2022/03/22 09:22:10;;;;;;;47.67;27.08;;;13.20;61.50;;;;;;5056726;28;20123;-68
2022/03/22 09:24:36;;;;;;;47.08;25.08;;;12.90;57.50;;;;;;5074456;28;20032;-67
2022/03/22 09:27:02;;;;;;;42.05;22.77;;;12.90;59.70;;;;;;5074752;28;20082;-66
2022/03/22 09:29:28;;;;;;;38.85;24.50;;;13.10;57.30;;;;;;5056139;28;20074;-67
2022/03/22 09:31:55;;;;;;;40.53;23.35;;;13.30;59.30;;;;;;5074529;28;20031;-68
2022/03/22 09:34:22;;;;;;;44.25;23.23;;;13.60;59.40;;;;;;5056444;28;20123;-67
2022/03/22 09:36:48;;;;;;;42.03;24.52;;;13.80;59.30;;;;;;5073997;28;20120;-66
2022/03/22 09:39:14;;;;;;;38.92;23.52;;;13.70;57.70;;;;;;5074400;28;20048;-68
2022/03/22 09:41:41;;;;;;;35.30;23.02;;;14.00;57.10;;;;;;5074334;28;20044;-67
2022/03/22 09:44:09;;;;;;;35.90;21.90;;;14.10;57.30;;;;;;5074295;28;20075;-67
2022/03/22 09:46:36;;;;;;;37.25;23.20;;;14.40;57.50;;;;;;5074292;28;20047;-68
2022/03/22 09:49:02;;;;;;;46.95;24.50;;;14.50;57.30;;;;;;5074194;28;20025;-68
2022/03/22 09:51:47;;;;;;;41.38;21.70;;;14.90;66.60;;;;;;5074362;28;20044;-69
2022/03/22 09:54:18;;;;;;;45.38;25.45;;;14.70;88.70;;;;;;5056248;28;20447;-67
2022/03/22 09:57:15;;;;;;;40.55;23.05;;;;;;;;;;5074081;28;20052;-67
2022/03/22 09:59:41;;;;;;;32.65;21.58;;;15.00;83.90;;;;;;5073946;28;20024;-68
2022/03/22 10:02:08;;;;;;;38.47;21.63;;;;;;;;;;5073648;28;20024;-67
2022/03/22 10:04:44;;;;;;;41.17;20.95;;;15.30;66.00;;;;;;5073417;28;20106;-67
2022/03/22 10:07:21;;;;;;;42.20;20.15;;;15.10;53.90;;;;;;5055959;28;20025;-69
2022/03/22 10:09:54;;;;;;;30.05;19.08;;;;;;;;;;5072499;28;20513;-66
2022/03/22 10:12:30;;;;;;;37.63;21.63;;;;;;;;;;5054390;28;20035;-68
2022/03/22 10:15:17;;;;;;;35.42;20.27;;;15.20;52.50;;;;;;5073410;28;20481;-67
2022/03/22 10:17:44;;;;;;;32.05;19.48;;;15.30;52.10;;;;;;5073393;28;20420;-68
2022/03/22 10:20:24;;;;;;;35.60;19.42;;;15.50;51.60;;;;;;5073525;28;20079;-68
2022/03/22 10:22:58;;;;;;;29.35;19.67;;;15.40;52.70;;;;;;5073466;28;20016;-67
2022/03/22 10:25:24;;;;;;;34.22;20.05;;;15.80;53.00;;;;;;5073436;28;20460;-68
2022/03/22 10:27:55;;;;;;;32.53;20.10;;;16.10;52.70;;;;;;5055274;28;20074;-70
2022/03/22 10:30:21;;;;;;;38.03;21.20;;;16.50;51.20;;;;;;5073495;28;20032;-67
2022/03/22 10:32:54;;;;;;;30.17;20.35;;;16.60;50.70;;;;;;5073319;28;20046;-66
2022/03/22 10:35:26;;;;;;;39.28;20.95;;;16.70;49.70;;;;;;5072874;28;20031;-66
2022/03/22 10:37:57;;;;;;;40.20;20.42;;;17.40;50.20;;;;;;5073401;28;20078;-67
2022/03/22 10:40:38;;;;;;;44.70;20.90;;;17.90;49.70;;;;;;5073067;28;20032;-67
2022/03/22 10:43:16;;;;;;;34.17;19.75;;;18.00;48.40;;;;;;5058199;28;20051;-69
2022/03/22 10:46:04;;;;;;;33.40;20.90;;;18.50;46.90;;;;;;5064665;28;20036;-68
2022/03/22 10:48:34;;;;;;;33.25;20.48;;;19.20;46.10;;;;;;5073070;28;20024;-67
2022/03/22 10:51:00;;;;;;;28.55;18.52;;;19.10;46.60;;;;;;5073067;28;20408;-66
2022/03/22 10:53:29;;;;;;;30.30;19.70;;;19.80;46.10;;;;;;5055061;28;20032;-69
2022/03/22 10:55:57;;;;;;;34.45;20.73;;;19.80;43.80;;;;;;5054221;28;20035;-68
2022/03/22 10:58:28;;;;;;;24.00;16.90;;;20.20;45.00;;;;;;5071499;28;20021;-69
2022/03/22 11:00:56;;;;;;;26.57;17.60;;;20.90;43.40;;;;;;5072175;28;20059;-70
2022/03/22 11:03:24;;;;;;;30.13;18.02;;;21.00;42.30;;;;;;5054177;28;20032;-67
2022/03/22 11:05:55;;;;;;;29.55;18.15;;;21.80;41.10;;;;;;5072338;28;20350;-68
2022/03/22 11:08:23;;;;;;;30.75;16.45;;;21.40;42.10;;;;;;5054478;28;20048;-69
2022/03/22 11:10:49;;;;;;;29.70;15.95;;;21.90;42.50;;;;;;5072554;28;20060;-70
2022/03/22 11:13:15;;;;;;;28.60;17.10;;;22.50;41.00;;;;;;5054539;28;20431;-69
2022/03/22 11:15:47;;;;;;;21.65;15.00;;;22.60;40.50;;;;;;5054755;28;20067;-66
2022/03/22 11:18:14;;;;;;;24.63;13.73;;;22.80;38.80;;;;;;5072697;28;20461;-68
2022/03/22 11:20:57;;;;;;;22.08;13.43;;;22.80;38.50;;;;;;5072676;28;20072;-68
2022/03/22 11:23:25;;;;;;;20.05;14.18;;;24.00;48.60;;;;;;5072908;28;20086;-71
2022/03/22 11:25:51;;;;;;;26.17;15.90;;;24.00;35.90;;;;;;5076639;28;20024;-65
2022/03/22 11:28:23;;;;;;;22.45;15.18;;;24.20;36.80;;;;;;5076243;28;20078;-66
2022/03/22 11:30:51;;;;;;;37.33;16.48;;;24.70;37.30;;;;;;5076326;28;20033;-66
2022/03/22 11:36:20;;;;;;;23.23;15.40;;;24.80;36.10;;;;;;5076651;28;20400;-65
2022/03/22 11:38:57;;;;;;;24.23;15.52;;;24.80;35.30;;;;;;5076362;28;20024;-69
2022/03/22 11:44:21;;;;;;;21.98;14.60;;;25.30;35.30;;;;;;5076018;28;20071;-66
2022/03/22 11:46:59;;;;;;;22.30;13.75;;;25.30;34.90;;;;;;5076298;28;20028;-67
2022/03/22 11:49:25;;;;;;;20.00;13.68;;;25.70;34.40;;;;;;5076166;28;20047;-65
2022/03/22 11:52:10;;;;;;;20.98;13.77;;;26.00;34.70;;;;;;5075671;28;20465;-65
2022/03/22 11:54:37;;;;;;;21.15;12.30;;;26.80;33.80;;;;;;5074825;28;20035;-65
2022/03/22 11:57:04;;;;;;;15.77;11.27;;;27.60;32.20;;;;;;5076335;28;20119;-65
2022/03/22 11:59:41;;;;;;;28.42;11.88;;;27.70;33.70;;;;;;5076187;28;20033;-65
2022/03/22 12:02:15;;;;;;;17.48;12.00;;;26.80;32.60;;;;;;5076160;28;20028;-66
2022/03/22 12:04:42;;;;;;;27.02;12.40;;;27.10;32.40;;;;;;5075975;28;20166;-64
2022/03/22 12:07:10;;;;;;;19.85;11.27;;;;;;;;;;5076204;28;20033;-64
2022/03/22 12:09:41;;;;;;;18.25;12.35;;;28.20;44.30;;;;;;5076057;28;20082;-67
2022/03/22 12:12:09;;;;;;;;;;;29.40;33.00;;;;;;5076446;28;20032;-64
2022/03/22 12:14:35;;;;;;;17.45;11.80;;;28.50;40.40;;;;;;5075823;28;19914;-67
2022/03/22 12:17:03;;;;;;;136.68;20.08;;;29.60;31.90;;;;;;5057815;28;20032;-66
2022/03/22 12:19:34;;;;;;;49.78;14.32;;;29.10;31.30;;;;;;5074426;28;20104;-66
2022/03/22 12:22:02;;;;;;;18.73;12.82;;;29.60;31.80;;;;;;5075719;28;20104;-68
2022/03/22 12:24:36;;;;;;;20.02;13.27;;;29.10;30.90;;;;;;5075446;28;20039;-67
2022/03/22 12:27:05;;;;;;;20.65;16.77;;;29.50;31.40;;;;;;5075572;28;20039;-66
2022/03/22 12:29:31;;;;;;;20.80;13.65;;;29.70;31.10;;;;;;5075535;28;20020;-64
2022/03/22 12:32:06;;;;;;;18.13;12.27;;;30.00;31.00;;;;;;5075492;28;20029;-64
2022/03/22 12:34:35;;;;;;;23.05;14.18;;;30.20;31.10;;;;;;5075242;28;20036;-66
2022/03/22 12:37:01;;;;;;;14.13;11.60;;;29.70;31.30;;;;;;5075467;28;20418;-66
2022/03/22 12:39:27;;;;;;;16.77;10.80;;;;;;;;;;5057495;28;20028;-66
2022/03/22 12:41:55;;;;;;;14.35;10.95;;;;;;;;;;5075546;28;20096;-65
2022/03/22 12:44:22;;;;;;;20.50;11.00;;;34.80;32.60;;;;;;5074848;28;20045;-65
2022/03/22 12:46:48;;;;;;;13.07;9.82;;;33.00;54.10;;;;;;5075448;28;20029;-65
2022/03/22 12:49:14;;;;;;;17.10;9.25;;;33.10;31.00;;;;;;5075367;28;20028;-65
2022/03/22 12:51:40;;;;;;;17.95;10.52;;;33.80;31.40;;;;;;5075274;28;20025;-65
2022/03/22 12:54:08;;;;;;;16.23;9.18;;;33.80;30.90;;;;;;5075539;28;20044;-65
2022/03/22 12:56:34;;;;;;;18.02;9.50;;;34.00;30.20;;;;;;5074946;28;20024;-65
2022/03/22 12:59:01;;;;;;;18.75;9.90;;;34.40;30.80;;;;;;5074874;28;20465;-64
2022/03/22 13:01:38;;;;;;;18.27;10.15;;;34.50;30.50;;;;;;5074971;28;20032;-66
2022/03/22 13:04:06;;;;;;;14.82;9.77;;;;;;;;;;5074893;28;20040;-65
2022/03/22 13:06:32;;;;;;;10.73;8.35;;;34.70;30.00;;;;;;5074457;28;20370;-65
2022/03/22 13:11:42;;;;;;;12.88;7.45;;;33.30;29.30;;;;;;5074626;28;20086;-64
2022/03/22 13:16:57;;;;;;;14.82;9.27;;;34.70;40.30;;;;;;5074845;28;20530;-65
2022/03/22 13:19:24;;;;;;;11.38;9.07;;;;;;;;;;5074709;28;20449;-64
2022/03/22 13:21:50;;;;;;;11.68;8.38;;;34.90;66.00;;;;;;5074525;28;20029;-64
2022/03/22 13:24:24;;;;;;;14.75;9.02;;;33.60;29.10;;;;;;5074438;28;20469;-64
2022/03/22 13:26:53;;;;;;;14.57;9.20;;;;;;;;;;5074617;28;20052;-63
2022/03/22 13:29:19;;;;;;;15.30;8.20;;;;;;;;;;5074528;28;20515;-63
2022/03/22 13:31:58;;;;;;;13.18;8.63;;;35.60;31.90;;;;;;5074521;28;20456;-65
2022/03/22 13:34:26;;;;;;;14.95;9.05;;;35.50;29.30;;;;;;5074394;28;20042;-64
2022/03/22 13:37:04;;;;;;;12.07;8.55;;;;;;;;;;5056416;28;20028;-64
2022/03/22 13:39:30;;;;;;;21.25;9.38;;;34.20;66.80;;;;;;5071835;28;20086;-65
2022/03/22 13:42:22;;;;;;;15.30;10.43;;;34.80;29.60;;;;;;5073837;28;20036;-65
2022/03/22 13:44:56;;;;;;;24.27;10.27;;;35.50;29.90;;;;;;5069722;28;20051;-67
2022/03/22 13:47:40;;;;;;;20.75;9.30;;;35.20;29.20;;;;;;5073527;28;20024;-65
2022/03/22 13:50:13;;;;;;;11.70;9.15;;;35.00;42.30;;;;;;5056197;28;20021;-65
2022/03/22 13:52:40;;;;;;;12.82;9.88;;;35.30;29.10;;;;;;5056111;28;20025;-66
2022/03/22 13:55:22;;;;;;;15.13;8.80;;;35.20;59.40;;;;;;5074087;28;20411;-65
2022/03/22 13:57:54;;;;;;;9.80;8.65;;;34.30;29.00;;;;;;5073934;28;20029;-65
2022/03/22 14:00:20;;;;;;;14.25;8.00;;;34.70;28.70;;;;;;5073890;28;20103;-65
2022/03/22 14:02:47;;;;;;;20.30;8.57;;;34.90;51.40;;;;;;5073861;28;20125;-64
2022/03/22 14:05:13;;;;;;;10.05;8.15;;;;;;;;;;5073778;28;20044;-66
2022/03/22 14:07:58;;;;;;;16.52;10.50;;;35.50;28.50;;;;;;5073712;28;20028;-66
2022/03/22 14:10:25;;;;;;;37.30;22.80;;;34.20;28.50;;;;;;5055279;28;20111;-65
2022/03/22 14:12:51;;;;;;;16.95;9.75;;;33.60;28.90;;;;;;5073214;28;20029;-65
2022/03/22 14:15:17;;;;;;;11.15;7.95;;;32.60;30.00;;;;;;5073474;28;20028;-65
2022/03/22 14:17:45;;;;;;;11.85;7.53;;;32.70;29.60;;;;;;5055345;28;20044;-64
2022/03/22 14:20:12;;;;;;;13.45;8.48;;;33.00;29.90;;;;;;5073420;28;20021;-65
2022/03/22 14:22:42;;;;;;;34.33;23.73;;;32.80;29.80;;;;;;5073392;28;20032;-66
2022/03/22 14:25:10;;;;;;;22.83;14.02;;;31.90;29.20;;;;;;5073411;28;20059;-66
2022/03/22 14:27:38;;;;;;;23.00;13.52;;;;;;;;;;5073363;28;20107;-64
2022/03/22 14:30:06;;;;;;;13.85;8.20;;;;;;;;;;5073403;28;20032;-65
2022/03/22 14:32:35;;;;;;;25.20;13.23;;;32.10;29.40;;;;;;5073297;28;20021;-69